Time;durP1;ratioP1;P1;durP2;ratioP2;P2;SDS_P1;SDS_P2;PMS_P1;PMS_P2;Temp;Humidity;BMP_temperature;BMP_pressure;BME280_temperature;BME280_humidity;BME280_pressure;Samples;Min_cycle;Max_cycle;Signal;HPM_P1;HPM_P2
2021/06/22 00:00:36;;;;;;;0.20;0.20;;;;;;;11.23;91.42;100659.09;5062743;28;20053;-87
2021/06/22 00:03:17;;;;;;;0.20;0.20;;;;;;;11.18;91.02;100650.97;5078627;27;20053;-86
2021/06/22 00:05:51;;;;;;;0.20;0.20;;;;;;;11.06;90.56;100647.78;5079353;28;20041;-87
2021/06/22 00:08:24;;;;;;;0.20;0.20;;;;;;;10.86;91.44;100621.53;5060364;28;20053;-86
2021/06/22 00:11:00;;;;;;;0.20;0.20;;;;;;;10.92;91.15;100654.97;5070957;28;20053;-87
2021/06/22 00:13:36;;;;;;;0.20;0.20;;;;;;;10.91;91.24;100665.06;5063281;28;20048;-88
2021/06/22 00:16:13;;;;;;;0.30;0.30;;;;;;;10.97;92.10;100684.91;5068245;28;20053;-87
2021/06/22 00:18:47;;;;;;;0.20;0.20;;;;;;;10.88;91.59;100680.06;5069250;28;20051;-86
2021/06/22 00:21:18;;;;;;;0.10;0.10;;;;;;;10.95;92.96;100687.09;5056646;28;20049;-86
2021/06/22 00:23:55;;;;;;;0.20;0.20;;;;;;;10.95;92.19;100681.63;5053668;28;20059;-87
2021/06/22 00:26:32;;;;;;;0.20;0.20;;;;;;;10.96;92.43;100683.28;5066384;28;20040;-86
2021/06/22 00:29:07;;;;;;;0.20;0.20;;;;;;;11.04;91.75;100696.28;5054834;28;20044;-88
2021/06/22 00:31:43;;;;;;;0.20;0.20;;;;;;;11.04;92.12;100697.09;5063715;28;20048;-87
2021/06/22 00:34:20;;;;;;;0.20;0.20;;;;;;;11.01;91.75;100688.69;5067924;28;20052;-86
2021/06/22 00:36:49;;;;;;;0.20;0.20;;;;;;;10.96;91.86;100686.78;5065356;28;20406;-86
2021/06/22 00:39:25;;;;;;;0.20;0.20;;;;;;;11.03;90.65;100686.50;5056256;28;20041;-86
2021/06/22 00:41:59;;;;;;;0.15;0.15;;;;;;;10.87;92.13;100662.09;5068450;28;20045;-88
2021/06/22 00:44:32;;;;;;;0.20;0.20;;;;;;;11.03;91.79;100679.16;5070603;28;20045;-87
2021/06/22 00:47:26;;;;;;;0.20;0.20;;;;;;;11.03;92.08;100686.50;5076432;28;20048;-86
2021/06/22 00:50:06;;;;;;;0.20;0.20;;;;;;;11.17;90.47;100679.31;5066109;28;20561;-88
2021/06/22 00:52:39;;;;;;;0.20;0.20;;;;;;;10.98;90.78;100670.19;5059883;28;20496;-86
2021/06/22 00:55:28;;;;;;;0.20;0.20;;;;;;;11.01;91.32;100680.53;5059693;28;20049;-86
2021/06/22 00:58:05;;;;;;;0.20;0.20;;;;;;;11.05;91.48;100687.03;5052436;28;20048;-87
2021/06/22 01:00:40;;;;;;;0.20;0.20;;;;;;;11.03;91.74;100690.03;5068124;28;20039;-87
2021/06/22 01:03:14;;;;;;;0.20;0.20;;;;;;;11.07;92.21;100695.72;5070172;28;20045;-88
2021/06/22 01:05:48;;;;;;;0.20;0.20;;;;;;;11.00;92.43;100693.31;5067513;28;20049;-87
2021/06/22 01:08:25;;;;;;;0.10;0.10;;;;;;;11.07;92.81;100690.28;5067641;28;20048;-87
2021/06/22 01:11:11;;;;;;;0.20;0.20;;;;;;;11.11;91.88;100691.34;5074990;28;20063;-87
2021/06/22 01:13:47;;;;;;;0.30;0.30;;;;;;;11.10;91.46;100676.09;5062541;28;20041;-88
2021/06/22 01:16:30;;;;;;;0.20;0.20;;;;;;;11.04;92.12;100680.75;5060736;28;20056;-86
2021/06/22 01:19:09;;;;;;;0.20;0.20;;;;;;;11.00;92.08;100665.28;5052219;28;20489;-87
2021/06/22 01:21:58;;;;;;;0.20;0.20;;;;;;;11.05;91.23;100666.03;5064591;28;20056;-85
2021/06/22 01:24:48;;;;;;;0.20;0.20;;;;;;;11.06;92.13;100666.84;5066539;28;20067;-87
2021/06/22 01:27:28;;;;;;;0.20;0.20;;;;;;;11.05;91.70;100667.97;5056235;28;20052;-87
2021/06/22 01:30:03;;;;;;;0.20;0.20;;;;;;;11.04;91.67;100669.84;5061519;28;20048;-86
2021/06/22 01:32:49;;;;;;;0.20;0.20;;;;;;;10.93;91.17;100671.03;5064445;28;20056;-87
2021/06/22 01:35:25;;;;;;;0.20;0.20;;;;;;;10.99;91.13;100679.97;5068011;28;20045;-86
2021/06/22 01:38:05;;;;;;;0.22;0.22;;;;;;;10.97;92.39;100677.53;5068375;28;20519;-86
2021/06/22 01:40:43;;;;;;;0.20;0.20;;;;;;;10.99;91.60;100693.59;5076829;28;20040;-87
2021/06/22 01:43:24;;;;;;;0.20;0.20;;;;;;;10.94;92.53;100696.34;5061197;28;20504;-87
2021/06/22 01:45:58;;;;;;;0.47;0.20;;;;;;;10.98;92.14;100713.75;5067574;28;20726;-87
2021/06/22 01:48:27;;;;;;;0.20;0.20;;;;;;;11.04;92.02;100705.25;5071781;28;20519;-86
2021/06/22 01:51:05;;;;;;;0.20;0.20;;;;;;;11.02;91.87;100701.19;5072384;28;20397;-87
2021/06/22 01:54:04;;;;;;;0.20;0.20;;;;;;;11.02;92.96;100709.34;5059967;28;20040;-86
2021/06/22 01:56:41;;;;;;;0.20;0.20;;;;;;;11.09;91.99;100720.78;5057929;28;20053;-86
2021/06/22 01:59:20;;;;;;;0.20;0.20;;;;;;;11.13;91.45;100730.00;5074334;28;20057;-86
2021/06/22 02:02:20;;;;;;;0.20;0.20;;;;;;;11.02;92.53;100734.69;5063982;28;20063;-87
2021/06/22 02:05:11;;;;;;;0.20;0.20;;;;;;;11.09;92.05;100734.41;5081574;28;20073;-86
2021/06/22 02:07:41;;;;;;;0.30;0.30;;;;;;;11.03;92.49;100732.78;5066473;28;20041;-86
2021/06/22 02:10:19;;;;;;;0.20;0.20;;;;;;;11.06;93.00;100732.22;5065732;28;20045;-86
2021/06/22 02:13:09;;;;;;;0.20;0.20;;;;;;;11.05;92.89;100731.41;5062734;28;20048;-87
2021/06/22 02:15:52;;;;;;;0.20;0.20;;;;;;;10.98;92.24;100722.75;5069623;28;20044;-84
2021/06/22 02:18:27;;;;;;;0.30;0.30;;;;;;;10.93;92.76;100725.50;5059870;28;20041;-86
2021/06/22 02:21:03;;;;;;;0.20;0.20;;;;;;;11.01;92.72;100743.16;5066003;28;20033;-86
2021/06/22 02:23:39;;;;;;;0.20;0.20;;;;;;;10.98;92.14;100751.88;5069951;28;20064;-86
2021/06/22 02:26:22;;;;;;;0.30;0.30;;;;;;;11.01;92.37;100754.06;5057703;28;20350;-87
2021/06/22 02:28:58;;;;;;;0.30;0.30;;;;;;;11.00;92.14;100755.94;5066859;28;20045;-86
2021/06/22 02:31:33;;;;;;;0.30;0.30;;;;;;;10.94;92.17;100756.25;5061776;28;20417;-86
2021/06/22 02:34:08;;;;;;;0.30;0.20;;;;;;;10.97;92.87;100758.44;5065379;28;20045;-86
2021/06/22 02:36:37;;;;;;;0.20;0.20;;;;;;;10.91;91.92;100767.69;5059731;28;20055;-87
2021/06/22 02:39:12;;;;;;;0.20;0.20;;;;;;;10.88;92.13;100756.28;5076894;28;20049;-86
2021/06/22 02:41:54;;;;;;;0.25;0.25;;;;;;;10.95;92.01;100755.16;5077573;28;20690;-86
2021/06/22 02:44:28;;;;;;;0.20;0.20;;;;;;;10.83;92.12;100748.13;5065099;28;20075;-87
2021/06/22 02:47:04;;;;;;;0.20;0.20;;;;;;;10.86;92.03;100753.03;5063267;28;20056;-85
2021/06/22 02:49:42;;;;;;;0.20;0.20;;;;;;;10.99;91.18;100743.44;5070054;28;20049;-85
2021/06/22 02:52:18;;;;;;;0.20;0.20;;;;;;;10.89;91.42;100746.19;5061799;28;20407;-86
2021/06/22 02:54:55;;;;;;;0.17;0.17;;;;;;;10.92;90.88;100753.00;5069791;28;20040;-86
2021/06/22 02:57:31;;;;;;;0.20;0.20;;;;;;;10.81;91.71;100763.13;5068403;28;20830;-87
2021/06/22 03:00:33;;;;;;;0.20;0.20;;;;;;;10.79;91.40;100757.97;5066342;28;20470;-86
2021/06/22 03:03:13;;;;;;;0.20;0.20;;;;;;;10.78;91.76;100747.34;5062044;28;20051;-87
2021/06/22 03:06:04;;;;;;;0.20;0.20;;;;;;;10.74;92.01;100752.53;5076393;28;20048;-87
2021/06/22 03:08:46;;;;;;;0.20;0.20;;;;;;;10.77;91.50;100752.00;5072541;28;20547;-88
2021/06/22 03:11:23;;;;;;;0.20;0.20;;;;;;;10.82;92.69;100746.50;5069303;28;20049;-87
2021/06/22 03:14:00;;;;;;;0.20;0.20;;;;;;;10.74;92.68;100749.00;5061412;28;20060;-87
2021/06/22 03:16:42;;;;;;;0.20;0.20;;;;;;;10.81;91.82;100747.63;5062153;28;20048;-87
2021/06/22 03:19:18;;;;;;;0.28;0.28;;;;;;;10.74;91.77;100757.97;5076927;28;20059;-87
2021/06/22 03:21:57;;;;;;;0.38;0.30;;;;;;;10.88;93.07;100755.47;5069190;28;20041;-86
2021/06/22 03:24:33;;;;;;;0.25;0.25;;;;;;;10.80;92.70;100753.31;5062751;28;20562;-87
2021/06/22 03:27:09;;;;;;;0.20;0.20;;;;;;;10.81;91.85;100752.22;5071642;28;20072;-86
2021/06/22 03:30:11;;;;;;;0.20;0.20;;;;;;;10.79;93.08;100777.00;5071135;28;20055;-88
2021/06/22 03:32:47;;;;;;;0.20;0.20;;;;;;;10.84;92.61;100781.59;5067617;28;20052;-86
2021/06/22 03:35:34;;;;;;;0.20;0.20;;;;;;;10.88;91.98;100791.69;5061651;28;20064;-87
2021/06/22 03:38:12;;;;;;;0.20;0.20;;;;;;;10.85;92.71;100789.53;5073302;28;20055;-86
2021/06/22 03:40:53;;;;;;;0.20;0.20;;;;;;;10.84;92.29;100798.78;5067995;28;20052;-86
2021/06/22 03:43:51;;;;;;;0.20;0.20;;;;;;;10.91;92.34;100803.94;5071148;28;20048;-87
2021/06/22 03:46:28;;;;;;;0.20;0.20;;;;;;;11.01;92.17;100809.31;5065223;28;20048;-86
2021/06/22 03:48:59;;;;;;;0.20;0.20;;;;;;;10.95;92.04;100813.16;5063453;28;20048;-87
2021/06/22 03:51:37;;;;;;;0.20;0.20;;;;;;;10.97;91.22;100834.66;5068087;28;20073;-88
2021/06/22 03:54:11;;;;;;;0.20;0.20;;;;;;;11.01;93.00;100838.47;5063961;28;20501;-86
2021/06/22 03:56:43;;;;;;;0.20;0.20;;;;;;;11.02;92.78;100826.47;5070814;28;20449;-87
2021/06/22 03:59:24;;;;;;;0.20;0.20;;;;;;;11.05;92.23;100826.72;5057374;28;20049;-87
2021/06/22 04:02:01;;;;;;;0.20;0.20;;;;;;;11.01;90.07;100814.75;5062949;28;20052;-88
2021/06/22 04:04:37;;;;;;;0.20;0.20;;;;;;;11.08;92.32;100824.56;5068250;28;20039;-88
2021/06/22 04:07:32;;;;;;;0.20;0.20;;;;;;;11.02;92.25;100812.84;5077872;28;20309;-87
2021/06/22 04:10:09;;;;;;;0.20;0.20;;;;;;;11.08;92.14;100819.91;5080685;28;20063;-85
2021/06/22 04:12:47;;;;;;;0.20;0.20;;;;;;;11.08;92.39;100825.34;5070171;28;20052;-87
2021/06/22 04:15:45;;;;;;;0.28;0.28;;;;;;;11.13;89.59;100833.50;5060015;28;20056;-87
2021/06/22 04:18:21;;;;;;;0.20;0.20;;;;;;;11.05;90.74;100837.63;5066708;28;20048;-87
2021/06/22 04:20:58;;;;;;;0.20;0.20;;;;;;;11.11;90.72;100832.16;5054874;28;20044;-87
2021/06/22 04:23:43;;;;;;;0.10;0.10;;;;;;;11.16;91.29;100821.25;5074884;28;20041;-87
2021/06/22 04:26:18;;;;;;;0.28;0.28;;;;;;;11.20;91.07;100811.41;5054241;28;20045;-87
2021/06/22 04:28:50;;;;;;;0.20;0.20;;;;;;;11.19;91.63;100798.88;5068723;28;20048;-86
2021/06/22 04:31:27;;;;;;;0.20;0.20;;;;;;;11.34;89.80;100800.72;5062189;28;20047;-89
2021/06/22 04:34:03;;;;;;;0.20;0.20;;;;;;;11.35;90.61;100797.69;5059239;28;20052;-87
2021/06/22 04:36:40;;;;;;;0.20;0.20;;;;;;;11.21;90.03;100792.06;5060313;28;20049;-87
2021/06/22 04:39:09;;;;;;;0.20;0.20;;;;;;;11.27;89.76;100778.41;5065015;28;20049;-85
2021/06/22 04:41:42;;;;;;;0.20;0.20;;;;;;;11.22;91.12;100766.44;5054141;28;20045;-86
2021/06/22 04:44:16;;;;;;;0.22;0.22;;;;;;;11.24;90.08;100777.03;5062278;28;20485;-86
2021/06/22 04:46:44;;;;;;;0.20;0.20;;;;;;;11.33;90.23;100767.19;5064061;28;20060;-87
2021/06/22 04:49:23;;;;;;;0.20;0.20;;;;;;;11.30;90.44;100766.97;5066657;28;20060;-87
2021/06/22 04:52:21;;;;;;;0.25;0.20;;;;;;;11.30;90.03;100775.94;5058669;28;20045;-85
2021/06/22 04:54:55;;;;;;;0.20;0.20;;;;;;;11.42;90.46;100783.75;5064481;28;20053;-86
2021/06/22 04:57:29;;;;;;;0.20;0.20;;;;;;;11.42;92.18;100786.50;5058926;28;20040;-86
2021/06/22 05:00:05;;;;;;;0.20;0.20;;;;;;;11.42;91.88;100802.84;5060384;28;20068;-87
2021/06/22 05:03:03;;;;;;;0.17;0.17;;;;;;;11.38;90.55;100810.75;5066392;28;20397;-86
2021/06/22 05:05:33;;;;;;;0.20;0.20;;;;;;;11.40;90.35;100808.56;5068627;28;20061;-86
2021/06/22 05:08:09;;;;;;;0.20;0.20;;;;;;;11.45;91.50;100805.00;5061676;28;20052;-87
2021/06/22 05:10:42;;;;;;;0.20;0.20;;;;;;;11.44;91.38;100819.72;5055361;28;20052;-87
2021/06/22 05:13:41;;;;;;;0.20;0.20;;;;;;;11.47;89.89;100819.13;5063850;28;20433;-86
2021/06/22 05:16:20;;;;;;;0.20;0.20;;;;;;;11.47;91.80;100815.63;5056067;28;20048;-86
2021/06/22 05:18:57;;;;;;;0.20;0.20;;;;;;;11.53;91.72;100812.56;5061789;28;20053;-86
2021/06/22 05:21:33;;;;;;;;;;;;;;;11.55;91.73;100818.53;5056923;28;20473;-87
2021/06/22 05:24:12;;;;;;;0.73;0.25;;;;;;;11.56;90.38;100803.03;5061603;28;19920;-86
2021/06/22 05:26:45;;;;;;;0.20;0.20;;;;;;;11.49;90.37;100825.13;5065715;28;20067;-87
2021/06/22 05:29:18;;;;;;;0.20;0.20;;;;;;;11.61;89.48;100823.97;5057828;28;20049;-87
2021/06/22 05:31:47;;;;;;;0.20;0.20;;;;;;;11.61;90.35;100826.69;5051494;28;20052;-86
2021/06/22 05:34:15;;;;;;;0.20;0.20;;;;;;;11.84;89.55;100828.69;5065892;28;20051;-86
2021/06/22 05:36:50;;;;;;;0.17;0.17;;;;;;;11.66;90.71;100829.38;5058942;28;20052;-86
2021/06/22 05:40:15;;;;;;;0.20;0.20;;;;;;;11.73;89.84;100846.22;5063411;28;20561;-87
2021/06/22 05:42:51;;;;;;;0.20;0.20;;;;;;;11.83;89.78;100845.34;5061656;28;20758;-88
2021/06/22 05:45:25;;;;;;;0.20;0.20;;;;;;;11.88;89.16;100854.31;5056590;28;20095;-88
2021/06/22 05:47:58;;;;;;;0.20;0.20;;;;;;;11.77;90.05;100854.69;5062050;28;20044;-86
2021/06/22 05:50:33;;;;;;;0.20;0.20;;;;;;;11.76;88.74;100848.38;5061051;28;20049;-87
2021/06/22 05:53:03;;;;;;;0.13;0.13;;;;;;;11.85;88.60;100849.41;5063991;28;20071;-88
2021/06/22 05:56:06;;;;;;;0.20;0.20;;;;;;;11.88;89.00;100856.22;5089625;28;20040;-86
2021/06/22 05:59:00;;;;;;;0.20;0.20;;;;;;;11.86;88.75;100855.69;5064838;28;20056;-87
2021/06/22 06:01:28;;;;;;;0.20;0.20;;;;;;;11.91;88.79;100866.56;5068572;28;20494;-86
2021/06/22 06:04:28;;;;;;;0.20;0.20;;;;;;;11.90;88.64;100868.47;5056320;28;20044;-86
2021/06/22 06:07:04;;;;;;;0.20;0.20;;;;;;;11.92;89.29;100868.19;5053221;28;20053;-90
2021/06/22 06:09:34;;;;;;;0.20;0.20;;;;;;;11.89;89.01;100872.31;5054765;28;20037;-90
2021/06/22 06:12:19;;;;;;;0.20;0.20;;;;;;;11.96;87.97;100865.72;5061472;28;20974;-88
2021/06/22 06:14:54;;;;;;;0.20;0.20;;;;;;;12.29;90.46;100876.91;5055241;28;20474;-89
2021/06/22 06:17:34;;;;;;;0.20;0.20;;;;;;;12.53;88.03;100875.06;5060169;28;20041;-89
2021/06/22 06:20:10;;;;;;;0.20;0.20;;;;;;;12.81;88.40;100888.16;5065865;28;20053;-89
2021/06/22 06:22:47;;;;;;;0.30;0.30;;;;;;;13.14;87.32;100888.34;5068676;28;20060;-88
2021/06/22 06:25:23;;;;;;;0.20;0.20;;;;;;;13.27;86.27;100871.19;5068866;28;20048;-90
2021/06/22 06:28:05;;;;;;;0.17;0.17;;;;;;;13.52;85.03;100888.41;5057171;28;20049;-89
2021/06/22 06:30:35;;;;;;;0.20;0.20;;;;;;;13.75;84.40;100883.97;5055681;28;20060;-90
2021/06/22 06:33:04;;;;;;;0.20;0.20;;;;;;;13.57;83.29;100878.22;5056720;28;20056;-86
2021/06/22 06:35:34;;;;;;;0.20;0.20;;;;;;;13.26;82.04;100881.34;5066625;28;20068;-87
2021/06/22 06:38:12;;;;;;;0.20;0.20;;;;;;;13.06;82.61;100898.81;5061982;28;20052;-89
2021/06/22 06:40:47;;;;;;;0.20;0.20;;;;;;;13.03;81.60;100904.84;5068057;28;20045;-87
2021/06/22 06:43:16;;;;;;;0.20;0.20;;;;;;;13.44;84.74;100901.63;5068780;28;20436;-89
2021/06/22 06:45:52;;;;;;;0.35;0.28;;;;;;;13.38;81.75;100908.28;5068224;28;20063;-85
2021/06/22 06:48:26;;;;;;;0.20;0.20;;;;;;;13.43;83.20;100912.88;5067738;28;20053;-89
2021/06/22 06:51:00;;;;;;;0.20;0.20;;;;;;;13.65;82.94;100912.28;5066527;28;21096;-88
2021/06/22 06:53:35;;;;;;;0.20;0.20;;;;;;;13.72;84.44;100917.41;5065998;28;20074;-88
2021/06/22 06:56:09;;;;;;;0.20;0.20;;;;;;;14.19;81.69;100920.25;5073927;28;20063;-84
2021/06/22 06:58:44;;;;;;;0.20;0.20;;;;;;;13.96;79.55;100925.50;5063905;28;20060;-89
2021/06/22 07:01:17;;;;;;;0.20;0.20;;;;;;;14.24;79.80;100923.72;5080300;28;20056;-85
2021/06/22 07:03:53;;;;;;;0.20;0.20;;;;;;;14.14;76.88;100918.44;5065335;28;20052;-85
2021/06/22 07:06:21;;;;;;;0.10;0.10;;;;;;;14.18;78.11;100910.41;5061837;28;20057;-90
2021/06/22 07:08:54;;;;;;;0.20;0.20;;;;;;;13.95;78.62;100918.44;5064492;28;20056;-88
2021/06/22 07:11:30;;;;;;;0.57;0.20;;;;;;;13.87;78.87;100922.66;5059881;28;20057;-88
2021/06/22 07:14:01;;;;;;;0.10;0.10;;;;;;;13.90;79.63;100905.63;5058153;28;20052;-89
2021/06/22 07:16:29;;;;;;;0.20;0.20;;;;;;;14.15;75.89;100919.22;5064431;28;20863;-86
2021/06/22 07:19:05;;;;;;;0.10;0.10;;;;;;;14.12;78.45;100915.97;5062715;28;20053;-89
2021/06/22 07:21:39;;;;;;;0.28;0.20;;;;;;;14.29;77.42;100936.50;5055023;28;20045;-85
2021/06/22 07:24:12;;;;;;;0.15;0.15;;;;;;;14.09;76.33;100932.97;5064820;28;20052;-89
2021/06/22 07:26:49;;;;;;;0.20;0.20;;;;;;;13.94;75.92;100941.44;5063773;28;20060;-86
2021/06/22 07:29:27;;;;;;;0.20;0.20;;;;;;;13.51;76.97;100934.09;5062463;28;20047;-89
2021/06/22 07:32:02;;;;;;;0.20;0.20;;;;;;;13.49;77.10;100930.00;5062204;28;20064;-89
2021/06/22 07:34:36;;;;;;;0.20;0.20;;;;;;;13.42;75.44;100935.84;5063964;28;20588;-87
2021/06/22 07:37:10;;;;;;;0.20;0.20;;;;;;;13.81;74.22;100926.56;5056065;28;20045;-90
2021/06/22 07:39:43;;;;;;;0.20;0.20;;;;;;;13.98;74.81;100923.31;5057676;28;20048;-86
2021/06/22 07:42:18;;;;;;;0.10;0.10;;;;;;;14.28;73.58;100932.16;5062333;28;20881;-90
2021/06/22 07:44:52;;;;;;;0.20;0.20;;;;;;;14.31;74.24;100933.47;5062184;28;20048;-90
2021/06/22 07:47:26;;;;;;;0.20;0.20;;;;;;;14.22;74.39;100931.41;5060680;28;20647;-88
2021/06/22 07:49:54;;;;;;;0.20;0.20;;;;;;;14.26;73.81;100940.66;5064120;28;20090;-87
2021/06/22 07:52:31;;;;;;;0.20;0.20;;;;;;;14.25;72.37;100930.00;5062250;28;20043;-92
2021/06/22 07:55:02;;;;;;;0.10;0.10;;;;;;;14.40;71.36;100937.16;5062345;28;20636;-90
2021/06/22 07:57:36;;;;;;;0.20;0.20;;;;;;;14.46;72.04;100936.78;5053633;28;20182;-87
2021/06/22 08:00:19;;;;;;;0.20;0.20;;;;;;;14.75;73.10;100933.03;5049184;28;20051;-87
2021/06/22 08:02:53;;;;;;;0.20;0.20;;;;;;;14.48;72.06;100941.94;5056465;28;20064;-84
2021/06/22 08:05:22;;;;;;;0.20;0.20;;;;;;;14.66;69.20;100942.25;5058386;28;20052;-88
2021/06/22 08:07:55;;;;;;;0.15;0.15;;;;;;;14.61;72.22;100941.19;5049597;28;20052;-85
2021/06/22 08:10:23;;;;;;;0.20;0.20;;;;;;;14.28;71.89;100946.66;5051453;28;20067;-83
2021/06/22 08:12:58;;;;;;;0.20;0.20;;;;;;;14.41;69.72;100949.75;5053391;28;20052;-90
2021/06/22 08:15:32;;;;;;;0.20;0.20;;;;;;;14.73;72.39;100959.88;5059959;28;20598;-86
2021/06/22 08:18:08;;;;;;;0.20;0.20;;;;;;;15.25;70.24;100945.25;5060221;28;20530;-89
2021/06/22 08:20:39;;;;;;;0.20;0.20;;;;;;;15.13;68.31;100935.59;5058505;28;20060;-87
2021/06/22 08:23:12;;;;;;;0.20;0.20;;;;;;;15.42;69.38;100933.66;5053311;28;20044;-84
2021/06/22 08:25:46;;;;;;;0.20;0.20;;;;;;;15.32;67.74;100928.38;5061137;28;20483;-86
2021/06/22 08:28:21;;;;;;;0.20;0.20;;;;;;;15.42;67.59;100933.66;5053632;28;20056;-85
2021/06/22 08:30:55;;;;;;;0.20;0.20;;;;;;;14.99;67.84;100931.22;5056895;28;21649;-88
2021/06/22 08:33:29;;;;;;;0.20;0.20;;;;;;;15.30;70.10;100931.41;5060342;28;20059;-84
2021/06/22 08:36:03;;;;;;;0.10;0.10;;;;;;;15.38;64.97;100914.25;5056725;28;20608;-86
2021/06/22 08:38:37;;;;;;;0.20;0.20;;;;;;;15.19;64.96;100922.59;5053505;28;20057;-83
2021/06/22 08:41:13;;;;;;;0.20;0.20;;;;;;;15.13;66.19;100921.06;5055048;28;20143;-87
2021/06/22 08:43:50;;;;;;;0.20;0.20;;;;;;;15.67;68.94;100915.03;5048334;28;20051;-89
2021/06/22 08:46:18;;;;;;;0.25;0.20;;;;;;;15.88;68.18;100920.88;5055846;28;20060;-84
2021/06/22 08:48:54;;;;;;;0.20;0.20;;;;;;;15.72;63.80;100931.38;5051463;28;20044;-86
2021/06/22 08:51:28;;;;;;;0.52;0.28;;;;;;;15.83;66.91;100924.56;5056866;28;20059;-86
2021/06/22 08:54:04;;;;;;;0.20;0.20;;;;;;;15.72;64.10;100923.16;5052705;28;20062;-89
2021/06/22 08:56:38;;;;;;;0.20;0.20;;;;;;;15.89;66.76;100925.25;5052234;28;21574;-85
2021/06/22 08:59:12;;;;;;;0.20;0.20;;;;;;;15.67;70.53;100921.31;5055140;28;20055;-85
2021/06/22 09:01:46;;;;;;;0.20;0.20;;;;;;;15.83;65.92;100904.56;5056921;28;20062;-87
2021/06/22 09:04:19;;;;;;;0.20;0.20;;;;;;;16.09;66.58;100918.47;5053050;28;21654;-84
2021/06/22 09:06:52;;;;;;;0.13;0.13;;;;;;;16.29;63.28;100914.41;5056338;28;20059;-83
2021/06/22 09:09:33;;;;;;;0.20;0.20;;;;;;;16.27;60.90;100925.72;5050107;28;20808;-86
2021/06/22 09:12:07;;;;;;;0.20;0.20;;;;;;;16.38;62.56;100926.28;5052051;28;20053;-84
2021/06/22 09:14:42;;;;;;;0.10;0.10;;;;;;;16.45;64.26;100921.16;5056897;28;20277;-84
2021/06/22 09:17:15;;;;;;;0.20;0.20;;;;;;;16.10;65.15;100929.16;5053060;28;20047;-84
2021/06/22 09:19:51;;;;;;;0.10;0.10;;;;;;;15.97;62.58;100939.03;5054146;28;20066;-86
2021/06/22 09:22:27;;;;;;;0.20;0.20;;;;;;;15.73;61.97;100938.47;5056557;28;20047;-84
2021/06/22 09:25:08;;;;;;;0.20;0.20;;;;;;;15.81;62.86;100935.84;5060810;28;20056;-84
2021/06/22 09:27:49;;;;;;;0.20;0.20;;;;;;;15.69;64.31;100926.47;5055396;28;20047;-86
2021/06/22 09:30:50;;;;;;;0.20;0.20;;;;;;;15.82;62.79;100914.69;5056886;28;20513;-89
2021/06/22 09:33:32;;;;;;;0.13;0.13;;;;;;;15.84;63.23;100925.38;5055893;28;22011;-84
2021/06/22 09:36:15;;;;;;;0.10;0.10;;;;;;;15.88;62.61;100924.44;5059391;28;20049;-84
2021/06/22 09:38:52;;;;;;;0.20;0.20;;;;;;;16.14;63.09;100927.41;5051711;28;20602;-87
2021/06/22 09:41:26;;;;;;;0.20;0.20;;;;;;;16.24;64.37;100922.78;5051628;28;20049;-85
2021/06/22 09:44:00;;;;;;;0.20;0.20;;;;;;;16.12;63.93;100924.16;5062065;28;20052;-86
2021/06/22 09:46:37;;;;;;;0.20;0.20;;;;;;;16.18;62.16;100935.00;5057944;28;20048;-84
2021/06/22 09:49:12;;;;;;;;;;;;;;;16.18;61.03;100933.06;5060825;28;20061;-87
2021/06/22 09:51:51;;;;;;;0.17;0.17;;;;;;;16.26;61.53;100917.78;5054610;28;19924;-85
2021/06/22 09:54:22;;;;;;;0.20;0.20;;;;;;;16.20;63.72;100933.59;5054508;28;20067;-85
2021/06/22 09:57:01;;;;;;;0.17;0.17;;;;;;;16.64;63.25;100928.34;5046275;28;20059;-85
2021/06/22 09:59:49;;;;;;;0.17;0.17;;;;;;;17.32;63.13;100930.94;5047751;28;20068;-88
2021/06/22 10:02:25;;;;;;;0.13;0.13;;;;;;;16.99;60.06;100929.38;5061382;28;20059;-89
2021/06/22 10:05:02;;;;;;;0.20;0.20;;;;;;;17.21;62.14;100932.34;5055409;28;20052;-88
2021/06/22 10:07:30;;;;;;;0.15;0.15;;;;;;;16.99;59.08;100940.38;5052795;28;20040;-84
2021/06/22 10:10:06;;;;;;;0.20;0.20;;;;;;;17.64;60.75;100945.41;5055702;28;20057;-84
2021/06/22 10:12:44;;;;;;;0.20;0.20;;;;;;;17.43;59.65;100942.47;5046024;28;20057;-89
2021/06/22 10:15:18;;;;;;;0.10;0.10;;;;;;;18.09;61.96;100945.16;5052977;28;20064;-87
2021/06/22 10:17:52;;;;;;;0.30;0.10;;;;;;;17.90;58.13;100939.94;5051205;28;20056;-85
2021/06/22 10:20:25;;;;;;;0.10;0.10;;;;;;;17.54;58.43;100951.22;5053404;28;20049;-85
2021/06/22 10:23:01;;;;;;;0.10;0.10;;;;;;;17.14;60.88;100950.13;5051835;28;20777;-83
2021/06/22 10:25:34;;;;;;;0.20;0.20;;;;;;;17.57;60.38;100945.88;5057876;28;20053;-88
2021/06/22 10:28:09;;;;;;;0.20;0.20;;;;;;;17.44;56.63;100938.56;5053801;28;20118;-85
2021/06/22 10:30:44;;;;;;;0.20;0.20;;;;;;;17.73;58.78;100935.25;5054015;28;20508;-88
2021/06/22 10:33:13;;;;;;;0.10;0.10;;;;;;;17.85;57.46;100940.88;5054358;28;20051;-85
2021/06/22 10:35:48;;;;;;;0.20;0.20;;;;;;;17.62;58.55;100953.16;5054760;28;20059;-85
2021/06/22 10:38:19;;;;;;;0.20;0.20;;;;;;;17.31;60.57;100957.63;5052777;28;20374;-87
2021/06/22 10:40:58;;;;;;;0.20;0.20;;;;;;;17.30;61.96;100960.69;5058815;28;20063;-83
2021/06/22 10:43:35;;;;;;;0.20;0.20;;;;;;;17.49;59.65;100977.75;5053198;28;20540;-87
2021/06/22 10:46:16;;;;;;;0.17;0.17;;;;;;;17.20;61.14;100978.31;5055215;28;20752;-87
2021/06/22 10:48:48;;;;;;;0.20;0.20;;;;;;;17.02;63.15;100973.88;5056448;28;20059;-84
2021/06/22 10:51:41;;;;;;;0.20;0.20;;;;;;;17.12;61.04;100979.06;5051409;28;20053;-86
2021/06/22 10:54:44;;;;;;;0.10;0.10;;;;;;;17.02;58.36;100980.16;5053974;28;20044;-84
2021/06/22 10:57:17;;;;;;;0.20;0.20;;;;;;;17.08;57.46;100976.16;5055062;28;20044;-85
2021/06/22 11:00:03;;;;;;;0.10;0.10;;;;;;;17.25;57.24;100969.09;5051312;28;20057;-87
2021/06/22 11:03:00;;;;;;;0.10;0.10;;;;;;;17.09;56.67;100960.47;5045285;28;20060;-85
2021/06/22 11:05:31;;;;;;;0.17;0.17;;;;;;;17.33;58.08;100971.88;5050676;28;20388;-85
2021/06/22 11:08:30;;;;;;;0.20;0.20;;;;;;;17.24;58.07;100970.25;5060230;28;20045;-86
2021/06/22 11:11:19;;;;;;;0.20;0.20;;;;;;;17.57;59.77;100973.41;5061105;28;20068;-88
2021/06/22 11:13:55;;;;;;;0.10;0.10;;;;;;;17.73;61.86;100968.28;5063203;28;20109;-87
2021/06/22 11:16:30;;;;;;;0.10;0.10;;;;;;;17.94;62.03;100970.41;5065020;28;20066;-90
2021/06/22 11:19:07;;;;;;;0.20;0.20;;;;;;;17.99;56.96;100976.59;5057960;28;20516;-87
2021/06/22 11:21:53;;;;;;;0.20;0.20;;;;;;;17.17;54.91;100979.75;5068994;28;20063;-84
2021/06/22 11:24:31;;;;;;;0.10;0.10;;;;;;;16.94;56.43;100973.47;5054410;28;20590;-85
2021/06/22 11:27:08;;;;;;;0.10;0.10;;;;;;;17.03;57.20;100976.28;5059133;28;20055;-86
2021/06/22 11:29:54;;;;;;;0.10;0.10;;;;;;;16.69;59.16;100972.19;5057949;28;20913;-85
2021/06/22 11:32:37;;;;;;;0.20;0.20;;;;;;;17.12;58.05;100959.81;5058771;28;20301;-85
2021/06/22 11:35:13;;;;;;;0.10;0.10;;;;;;;17.21;57.14;100966.19;5061746;28;20054;-87
2021/06/22 11:37:44;;;;;;;0.20;0.20;;;;;;;17.82;56.37;100966.31;5059779;28;20074;-86
2021/06/22 11:40:21;;;;;;;0.20;0.20;;;;;;;17.93;55.26;100964.09;5060240;28;20122;-84
2021/06/22 11:43:08;;;;;;;;;;;;;;;18.16;56.05;100962.00;5062958;28;20059;-86
2021/06/22 11:45:41;;;;;;;0.20;0.20;;;;;;;17.91;55.23;100960.00;5062069;28;19935;-89
2021/06/22 11:48:15;;;;;;;0.10;0.10;;;;;;;17.38;55.76;100953.63;5056634;28;20052;-86
2021/06/22 11:50:54;;;;;;;0.10;0.10;;;;;;;16.93;56.34;100962.81;5063351;28;20053;-84
2021/06/22 11:53:35;;;;;;;0.15;0.15;;;;;;;17.26;58.30;100954.22;5054959;28;20415;-84
2021/06/22 11:56:14;;;;;;;0.10;0.10;;;;;;;17.64;57.12;100939.91;5062426;28;20052;-89
2021/06/22 11:58:48;;;;;;;0.15;0.15;;;;;;;17.96;55.94;100957.94;5065758;28;21224;-86
2021/06/22 12:01:30;;;;;;;0.10;0.10;;;;;;;17.54;55.47;100954.78;5062869;28;20055;-88
2021/06/22 12:04:05;;;;;;;0.10;0.10;;;;;;;17.80;57.02;100954.84;5058047;28;20736;-88
2021/06/22 12:06:38;;;;;;;0.10;0.10;;;;;;;18.00;56.51;100956.16;5055756;28;20048;-87
2021/06/22 12:09:19;;;;;;;0.10;0.10;;;;;;;17.76;55.98;100958.53;5058005;28;20063;-84
2021/06/22 12:11:55;;;;;;;0.10;0.10;;;;;;;17.50;54.01;100959.31;5065087;28;20048;-85
2021/06/22 12:14:24;;;;;;;0.13;0.13;;;;;;;17.37;56.11;100951.97;5055217;28;20055;-86